createdAt,value
2022-10-23T00:00:16.896Z,3.88
2022-10-23T00:02:43.879Z,3.00
2022-10-23T00:05:10.777Z,3.67
2022-10-23T00:07:37.302Z,3.45
2022-10-23T00:10:04.183Z,3.33
2022-10-23T00:12:30.742Z,4.78
2022-10-23T00:14:57.256Z,3.58
2022-10-23T00:17:23.746Z,3.40
2022-10-23T00:19:50.242Z,3.40
2022-10-23T00:22:16.769Z,3.30
2022-10-23T00:24:43.366Z,3.55
2022-10-23T00:27:09.861Z,3.22
2022-10-23T00:29:36.390Z,4.20
2022-10-23T00:32:03.006Z,4.30
2022-10-23T00:34:29.489Z,3.53
2022-10-23T00:36:56.286Z,3.47
2022-10-23T00:39:22.816Z,3.85
2022-10-23T00:41:49.299Z,3.65
2022-10-23T00:44:18.775Z,3.20
2022-10-23T00:46:46.198Z,3.17
2022-10-23T00:51:48.058Z,3.72
2022-10-23T00:54:24.089Z,3.85
2022-10-23T00:56:52.894Z,3.70
2022-10-23T00:59:19.645Z,3.78
2022-10-23T01:01:46.189Z,3.15
2022-10-23T01:04:12.796Z,3.92
2022-10-23T01:09:31.189Z,3.47
2022-10-23T01:12:01.410Z,3.55
2022-10-23T01:14:42.218Z,3.25
2022-10-23T01:17:11.749Z,2.90
2022-10-23T01:20:08.367Z,3.55
2022-10-23T01:23:08.990Z,3.40
2022-10-23T01:28:26.209Z,3.92
2022-10-23T01:30:53.996Z,3.03
2022-10-23T01:33:26.331Z,3.10
2022-10-23T01:35:59.020Z,3.35
2022-10-23T01:38:31.308Z,4.07
2022-10-23T01:41:08.030Z,3.15
2022-10-23T01:43:58.013Z,3.63
2022-10-23T01:46:28.424Z,3.47
2022-10-23T01:48:55.456Z,3.22
2022-10-23T01:51:24.755Z,4.30
2022-10-23T01:53:53.147Z,3.45
2022-10-23T01:56:23.076Z,3.40
2022-10-23T01:58:52.343Z,4.07
2022-10-23T02:01:22.351Z,3.75
2022-10-23T02:03:52.131Z,2.67
2022-10-23T02:06:18.967Z,3.03
2022-10-23T02:08:46.116Z,4.60
2022-10-23T02:11:19.886Z,2.85
2022-10-23T02:14:11.346Z,3.35
2022-10-23T02:16:45.397Z,3.75
2022-10-23T02:19:27.086Z,3.30
2022-10-23T02:22:08.318Z,3.95
2022-10-23T02:24:39.993Z,3.22
2022-10-23T02:27:12.880Z,3.22
2022-10-23T02:29:45.261Z,4.13
2022-10-23T02:32:13.146Z,3.60
2022-10-23T02:34:40.581Z,4.05
2022-10-23T02:37:10.334Z,3.22
2022-10-23T02:39:37.115Z,3.55
2022-10-23T02:42:11.882Z,3.88
2022-10-23T02:44:45.145Z,4.38
2022-10-23T02:47:14.751Z,3.70
2022-10-23T02:49:56.010Z,3.83
2022-10-23T02:52:45.237Z,4.03
2022-10-23T02:55:32.562Z,3.88
2022-10-23T02:58:05.292Z,4.22
2022-10-23T03:00:33.006Z,3.63
2022-10-23T03:03:06.757Z,4.05
2022-10-23T03:05:36.386Z,4.03
2022-10-23T03:08:09.209Z,3.35
2022-10-23T03:10:36.146Z,4.53
2022-10-23T03:13:02.742Z,3.65
2022-10-23T03:15:36.683Z,4.05
2022-10-23T03:18:03.283Z,3.15
2022-10-23T03:20:29.827Z,3.15
2022-10-23T03:22:56.381Z,4.07
2022-10-23T03:25:22.873Z,3.35
2022-10-23T03:27:49.373Z,4.32
2022-10-23T03:30:16.728Z,3.72
2022-10-23T03:32:43.848Z,3.83
2022-10-23T03:35:10.571Z,4.43
2022-10-23T03:37:37.827Z,3.53
2022-10-23T03:40:04.807Z,3.90
2022-10-23T03:42:34.389Z,4.25
2022-10-23T03:45:00.868Z,3.05
2022-10-23T03:47:27.542Z,3.80
2022-10-23T03:49:54.043Z,3.42
2022-10-23T03:52:20.627Z,3.35
2022-10-23T03:54:50.524Z,3.47
2022-10-23T03:57:17.286Z,3.03
2022-10-23T03:59:43.911Z,2.92
2022-10-23T04:02:10.533Z,3.75
2022-10-23T04:04:37.082Z,3.03
2022-10-23T04:07:03.638Z,3.50
2022-10-23T04:09:30.180Z,4.13
2022-10-23T04:11:57.062Z,3.10
2022-10-23T04:14:27.357Z,3.83
2022-10-23T04:16:54.044Z,3.03
2022-10-23T04:19:20.541Z,3.13
2022-10-23T04:21:47.077Z,3.63
2022-10-23T04:24:13.709Z,3.50
2022-10-23T04:26:40.269Z,3.50
2022-10-23T04:29:09.865Z,3.20
2022-10-23T04:31:36.349Z,3.85
2022-10-23T04:34:02.895Z,3.20
2022-10-23T04:36:30.865Z,3.33
2022-10-23T04:39:02.963Z,2.83
2022-10-23T04:41:29.794Z,3.35
2022-10-23T04:43:56.282Z,2.30
2022-10-23T04:46:22.753Z,3.20
2022-10-23T04:48:49.553Z,2.75
2022-10-23T04:51:21.762Z,2.85
2022-10-23T04:53:55.577Z,2.95
2022-10-23T04:56:40.934Z,2.20
2022-10-23T04:59:11.720Z,2.50
2022-10-23T05:01:39.852Z,2.80
2022-10-23T05:04:08.670Z,2.20
2022-10-23T05:06:53.278Z,2.50
2022-10-23T05:09:32.748Z,3.05
2022-10-23T05:12:07.059Z,2.67
2022-10-23T05:14:33.577Z,3.05
2022-10-23T05:17:08.259Z,2.63
2022-10-23T05:19:39.773Z,2.95
2022-10-23T05:22:06.724Z,3.20
2022-10-23T05:24:49.733Z,2.42
2022-10-23T05:27:20.325Z,2.78
2022-10-23T05:29:46.866Z,3.17
2022-10-23T05:32:17.365Z,2.00
2022-10-23T05:34:44.137Z,2.97
2022-10-23T05:37:12.886Z,2.65
2022-10-23T05:39:40.061Z,2.40
2022-10-23T05:42:11.842Z,2.72
2022-10-23T05:44:39.714Z,3.78
2022-10-23T05:47:32.434Z,3.45
2022-10-23T05:50:08.201Z,2.60
2022-10-23T05:53:11.149Z,2.90
2022-10-23T05:55:49.561Z,3.08
2022-10-23T05:58:30.915Z,3.10
2022-10-23T06:01:10.181Z,3.42
2022-10-23T06:03:59.679Z,2.60
2022-10-23T06:06:41.278Z,2.97
2022-10-23T06:09:08.361Z,3.75
2022-10-23T06:11:38.956Z,3.45
2022-10-23T06:14:11.180Z,4.25
2022-10-23T06:16:38.464Z,3.50
2022-10-23T06:19:05.813Z,3.25
2022-10-23T06:21:36.798Z,3.33
2022-10-23T06:24:05.857Z,3.47
2022-10-23T06:26:42.613Z,3.75
2022-10-23T06:29:14.600Z,3.20
2022-10-23T06:31:42.614Z,3.67
2022-10-23T06:34:10.997Z,3.78
2022-10-23T06:36:40.705Z,3.60
2022-10-23T06:39:42.466Z,4.60
2022-10-23T06:42:41.583Z,4.18
2022-10-23T06:45:26.516Z,4.15
2022-10-23T06:47:53.101Z,4.72
2022-10-23T06:50:19.687Z,3.45
2022-10-23T06:52:47.625Z,2.00
2022-10-23T06:55:42.658Z,2.55
2022-10-23T06:58:10.814Z,3.50
2022-10-23T07:00:54.060Z,4.05
2022-10-23T07:03:20.694Z,3.38
2022-10-23T07:05:47.594Z,3.78
2022-10-23T07:08:14.897Z,5.10
2022-10-23T07:10:44.557Z,4.60
2022-10-23T07:13:12.054Z,4.50
2022-10-23T07:15:40.302Z,4.32
2022-10-23T07:18:14.660Z,4.00
2022-10-23T07:21:04.005Z,4.00
2022-10-23T07:23:31.666Z,4.60
2022-10-23T07:26:16.863Z,4.40
2022-10-23T07:28:44.951Z,4.75
2022-10-23T07:31:13.073Z,4.18
2022-10-23T07:33:59.858Z,4.82
2022-10-23T07:36:26.450Z,4.80
2022-10-23T07:38:53.482Z,5.22
2022-10-23T07:41:21.203Z,4.88
2022-10-23T07:43:47.686Z,4.95
2022-10-23T07:46:14.347Z,5.47
2022-10-23T07:48:41.845Z,5.93
2022-10-23T07:51:12.383Z,5.35
2022-10-23T07:53:45.301Z,5.25
2022-10-23T07:56:31.672Z,5.25
2022-10-23T07:59:16.663Z,5.57
2022-10-23T08:01:51.510Z,5.30
2022-10-23T08:04:21.155Z,4.80
2022-10-23T08:07:07.095Z,5.25
2022-10-23T08:09:39.667Z,4.53
2022-10-23T08:12:07.573Z,5.50
2022-10-23T08:14:34.130Z,6.20
2022-10-23T08:19:48.418Z,5.15
2022-10-23T08:22:16.393Z,5.35
2022-10-23T08:24:43.712Z,6.15
2022-10-23T08:27:10.264Z,6.30
2022-10-23T08:29:42.333Z,5.30
2022-10-23T08:32:09.270Z,6.22
2022-10-23T08:34:47.509Z,5.65
2022-10-23T08:37:14.118Z,5.70
2022-10-23T08:39:40.666Z,7.40
2022-10-23T08:42:22.941Z,6.55
2022-10-23T08:44:55.986Z,7.13
2022-10-23T08:47:29.328Z,6.10
2022-10-23T08:50:31.027Z,8.00
2022-10-23T08:53:11.298Z,6.78
2022-10-23T08:55:41.453Z,7.97
2022-10-23T08:58:24.658Z,8.27
2022-10-23T09:00:51.551Z,8.75
2022-10-23T09:03:18.473Z,8.50
2022-10-23T09:06:01.678Z,8.60
2022-10-23T09:08:55.921Z,8.32
2022-10-23T09:11:31.497Z,8.07
2022-10-23T09:14:01.637Z,8.70
2022-10-23T09:16:53.441Z,9.13
2022-10-23T09:19:24.661Z,9.60
2022-10-23T09:21:51.214Z,8.57
2022-10-23T09:24:21.052Z,8.90
2022-10-23T09:26:49.643Z,10.25
2022-10-23T09:29:24.923Z,8.95
2022-10-23T09:31:52.859Z,8.95
2022-10-23T09:34:22.553Z,9.13
2022-10-23T09:36:51.913Z,7.65
2022-10-23T09:39:29.332Z,8.75
2022-10-23T09:41:57.105Z,9.35
2022-10-23T09:44:29.684Z,9.35
2022-10-23T09:47:05.878Z,9.57
2022-10-23T09:49:34.034Z,9.35
2022-10-23T09:52:03.123Z,8.55
2022-10-23T09:54:38.298Z,9.02
2022-10-23T09:57:33.861Z,9.20
2022-10-23T10:00:04.018Z,9.63
2022-10-23T10:02:38.344Z,8.23
2022-10-23T10:05:39.026Z,8.48
2022-10-23T10:08:21.797Z,9.13
2022-10-23T10:10:52.377Z,8.65
2022-10-23T10:13:45.239Z,9.40
2022-10-23T10:16:20.982Z,9.85
2022-10-23T10:18:51.161Z,7.45
2022-10-23T10:21:36.125Z,10.43
2022-10-23T10:24:07.895Z,9.65
2022-10-23T10:26:37.078Z,9.27
2022-10-23T10:29:09.715Z,9.73
2022-10-23T10:31:57.028Z,9.73
2022-10-23T10:34:54.050Z,9.85
2022-10-23T10:37:35.258Z,9.52
2022-10-23T10:40:16.558Z,10.20
2022-10-23T10:42:50.425Z,8.57
2022-10-23T10:45:16.830Z,8.50
2022-10-23T10:47:53.117Z,9.40
2022-10-23T10:50:31.514Z,9.13
2022-10-23T10:53:20.254Z,10.15
2022-10-23T10:55:52.805Z,8.25
2022-10-23T10:58:47.193Z,8.77
2022-10-23T11:01:43.094Z,9.25
2022-10-23T11:04:24.962Z,8.55
2022-10-23T11:06:53.921Z,7.40
2022-10-23T11:09:24.464Z,9.23
2022-10-23T11:11:51.065Z,8.52
2022-10-23T11:14:26.086Z,9.15
2022-10-23T11:17:19.274Z,8.73
2022-10-23T11:19:50.266Z,8.02
2022-10-23T11:22:36.782Z,9.73
2022-10-23T11:25:31.953Z,9.55
2022-10-23T11:28:26.541Z,8.80
2022-10-23T11:31:26.617Z,8.85
2022-10-23T11:34:02.189Z,8.85
2022-10-23T11:36:55.962Z,8.55
2022-10-23T11:39:31.966Z,6.85
2022-10-23T11:42:09.281Z,8.85
2022-10-23T11:44:49.823Z,8.85
2022-10-23T11:47:24.805Z,7.88
2022-10-23T11:49:51.570Z,7.55
2022-10-23T11:52:23.712Z,8.40
2022-10-23T11:55:01.648Z,9.15
2022-10-23T11:57:28.200Z,8.45
2022-10-23T11:59:55.910Z,7.75
2022-10-23T12:02:38.284Z,8.15
2022-10-23T12:05:38.383Z,8.25
2022-10-23T12:08:07.866Z,7.78
2022-10-23T12:10:36.298Z,6.80
2022-10-23T12:13:05.814Z,8.23
2022-10-23T12:15:34.746Z,6.97
2022-10-23T12:18:15.464Z,7.10
2022-10-23T12:20:51.766Z,6.53
2022-10-23T12:23:45.860Z,8.20
2022-10-23T12:26:23.166Z,7.72
2022-10-23T12:29:02.692Z,6.78
2022-10-23T12:31:48.533Z,8.15
2022-10-23T12:34:36.341Z,7.22
2022-10-23T12:37:11.841Z,7.35
2022-10-23T12:39:40.038Z,7.65
2022-10-23T12:42:14.269Z,7.10
2022-10-23T12:44:40.766Z,6.78
2022-10-23T12:47:07.248Z,6.70
2022-10-23T12:49:35.404Z,5.85
2022-10-23T12:52:03.370Z,7.47
2022-10-23T12:54:38.676Z,6.38
2022-10-23T12:57:28.281Z,5.53
2022-10-23T13:00:02.327Z,6.55
2022-10-23T13:02:31.553Z,5.97
2022-10-23T13:05:01.267Z,6.28
2022-10-23T13:07:30.056Z,6.97
2022-10-23T13:09:59.355Z,6.53
2022-10-23T13:12:36.409Z,6.82
2022-10-23T13:15:10.735Z,6.03
2022-10-23T13:17:41.295Z,6.43
2022-10-23T13:20:17.150Z,6.85
2022-10-23T13:22:44.998Z,7.60
2022-10-23T13:25:31.798Z,6.57
2022-10-23T13:28:07.393Z,6.15
2022-10-23T13:30:42.934Z,6.47
2022-10-23T13:33:23.162Z,5.63
2022-10-23T13:36:03.310Z,5.80
2022-10-23T13:38:35.200Z,5.95
2022-10-23T13:41:03.522Z,6.05
2022-10-23T13:43:30.915Z,6.70
2022-10-23T13:45:58.806Z,6.38
2022-10-23T13:48:25.948Z,6.30
2022-10-23T13:50:53.051Z,7.03
2022-10-23T13:53:20.138Z,6.32
2022-10-23T13:55:50.107Z,6.50
2022-10-23T13:58:18.125Z,6.50
2022-10-23T14:00:45.837Z,6.38
2022-10-23T14:03:12.340Z,6.25
2022-10-23T14:05:38.871Z,7.25
2022-10-23T14:08:05.562Z,5.60
2022-10-23T14:10:32.036Z,5.47
2022-10-23T14:12:58.545Z,5.68
2022-10-23T14:15:24.993Z,5.53
2022-10-23T14:17:55.262Z,6.63
2022-10-23T14:20:25.795Z,6.43
2022-10-23T14:22:54.307Z,6.28
2022-10-23T14:25:20.791Z,5.90
2022-10-23T14:27:47.443Z,6.53
2022-10-23T14:30:14.178Z,6.43
2022-10-23T14:32:41.030Z,6.22
2022-10-23T14:35:07.933Z,7.38
2022-10-23T14:37:34.770Z,6.95
2022-10-23T14:40:01.286Z,5.70
2022-10-23T14:42:33.979Z,7.03
2022-10-23T14:45:02.520Z,6.57
2022-10-23T14:47:29.258Z,6.07
2022-10-23T14:49:56.255Z,6.18
2022-10-23T14:52:23.509Z,6.80
2022-10-23T14:54:54.341Z,7.55
2022-10-23T14:57:22.208Z,6.68
2022-10-23T14:59:49.403Z,6.35
2022-10-23T15:02:16.432Z,6.63
2022-10-23T15:04:42.909Z,5.78
2022-10-23T15:07:09.434Z,5.80
2022-10-23T15:09:36.561Z,6.15
2022-10-23T15:12:04.725Z,6.10
2022-10-23T15:14:31.420Z,5.97
2022-10-23T15:16:57.940Z,6.25
2022-10-23T15:19:24.574Z,6.30
2022-10-23T15:21:52.385Z,6.13
2022-10-23T15:24:20.708Z,5.88
2022-10-23T15:29:14.870Z,5.45
2022-10-23T15:31:46.719Z,5.38
2022-10-23T15:34:24.749Z,6.35
2022-10-23T15:36:51.950Z,4.82
2022-10-23T15:39:21.332Z,4.78
2022-10-23T15:41:51.198Z,4.60
2022-10-23T15:44:19.679Z,5.03
2022-10-23T15:49:13.181Z,5.63
2022-10-23T15:51:39.969Z,5.65
2022-10-23T15:54:07.655Z,5.05
2022-10-23T15:56:34.819Z,5.30
2022-10-23T15:59:01.924Z,5.60
2022-10-23T16:01:28.801Z,5.88
2022-10-23T16:03:55.403Z,5.55
2022-10-23T16:06:21.978Z,6.32
2022-10-23T16:08:48.661Z,5.72
2022-10-23T16:11:23.531Z,5.57
2022-10-23T16:13:50.362Z,5.68
2022-10-23T16:16:17.612Z,5.78
2022-10-23T16:18:44.720Z,5.63
2022-10-23T16:21:18.498Z,5.70
2022-10-23T16:23:45.307Z,6.68
2022-10-23T16:26:12.130Z,4.90
2022-10-23T16:28:38.787Z,5.18
2022-10-23T16:31:10.210Z,5.85
2022-10-23T16:33:36.861Z,5.95
2022-10-23T16:36:07.631Z,6.13
2022-10-23T16:38:54.104Z,6.25
2022-10-23T16:41:40.678Z,6.15
2022-10-23T16:44:16.705Z,5.18
2022-10-23T16:47:00.405Z,7.07
2022-10-23T16:49:29.666Z,5.13
2022-10-23T16:51:56.125Z,5.43
2022-10-23T16:54:22.714Z,6.80
2022-10-23T16:56:49.494Z,5.07
2022-10-23T16:59:15.990Z,5.28
2022-10-23T17:01:42.618Z,6.05
2022-10-23T17:04:09.246Z,5.72
2022-10-23T17:06:36.567Z,5.13
2022-10-23T17:09:04.465Z,6.05
2022-10-23T17:11:32.966Z,6.03
2022-10-23T17:14:13.374Z,5.22
2022-10-23T17:16:46.614Z,5.35
2022-10-23T17:19:39.698Z,7.05
2022-10-23T17:22:01.798Z,6.15
2022-10-23T17:24:28.278Z,6.03
2022-10-23T17:26:56.158Z,6.50
2022-10-23T17:29:22.747Z,6.93
2022-10-23T17:31:50.990Z,5.68
2022-10-23T17:34:20.736Z,4.90
2022-10-23T17:36:50.209Z,6.60
2022-10-23T17:39:20.855Z,5.70
2022-10-23T17:41:47.492Z,6.43
2022-10-23T17:44:14.087Z,6.20
2022-10-23T17:46:40.688Z,5.75
2022-10-23T17:49:07.600Z,5.43
2022-10-23T17:51:35.536Z,6.03
2022-10-23T17:54:05.535Z,5.05
2022-10-23T17:56:33.176Z,6.72
2022-10-23T17:59:02.517Z,5.85
2022-10-23T18:01:29.685Z,6.05
2022-10-23T18:04:00.096Z,5.80
2022-10-23T18:06:32.043Z,6.25
2022-10-23T18:08:59.673Z,5.15
2022-10-23T18:11:29.031Z,5.85
2022-10-23T18:13:57.093Z,5.82
2022-10-23T18:16:23.877Z,6.00
2022-10-23T18:18:53.198Z,6.07
2022-10-23T18:21:22.057Z,5.95
2022-10-23T18:23:48.994Z,6.38
2022-10-23T18:26:24.222Z,4.93
2022-10-23T18:28:58.370Z,5.57
2022-10-23T18:31:31.739Z,5.55
2022-10-23T18:34:01.397Z,5.50
2022-10-23T18:36:30.413Z,5.63
2022-10-23T18:38:57.045Z,4.85
2022-10-23T18:41:23.873Z,4.97
2022-10-23T18:43:51.707Z,5.15
2022-10-23T18:46:19.157Z,5.18
2022-10-23T18:48:45.766Z,5.50
2022-10-23T18:51:26.718Z,5.03
2022-10-23T18:53:53.589Z,5.32
2022-10-23T18:56:23.426Z,4.68
2022-10-23T18:59:01.696Z,5.57
2022-10-23T19:01:29.327Z,5.25
2022-10-23T19:03:57.669Z,5.18
2022-10-23T19:06:24.444Z,5.75
2022-10-23T19:08:51.646Z,4.55
2022-10-23T19:11:20.184Z,5.47
2022-10-23T19:13:46.839Z,5.07
2022-10-23T19:16:16.104Z,4.38
2022-10-23T19:18:45.860Z,4.57
2022-10-23T19:21:13.190Z,5.15
2022-10-23T19:23:40.904Z,4.97
2022-10-23T19:26:09.843Z,4.25
2022-10-23T19:28:38.380Z,5.13
2022-10-23T19:31:05.837Z,4.78
2022-10-23T19:33:34.275Z,5.10
2022-10-23T19:38:32.731Z,5.63
2022-10-23T19:40:59.280Z,5.65
2022-10-23T19:43:25.947Z,4.35
2022-10-23T19:45:52.477Z,6.05
2022-10-23T19:48:18.976Z,5.22
2022-10-23T19:50:45.465Z,5.47
2022-10-23T19:53:12.010Z,6.30
2022-10-23T19:55:38.711Z,5.75
2022-10-23T19:58:05.278Z,6.38
2022-10-23T20:00:31.846Z,6.25
2022-10-23T20:02:58.506Z,5.40
2022-10-23T20:05:25.108Z,6.03
2022-10-23T20:07:51.762Z,6.18
2022-10-23T20:10:18.697Z,6.78
2022-10-23T20:12:51.643Z,5.07
2022-10-23T20:15:29.030Z,6.53
2022-10-23T20:17:55.505Z,4.75
2022-10-23T20:20:22.722Z,5.47
2022-10-23T20:22:54.518Z,5.93
2022-10-23T20:25:22.191Z,5.57
2022-10-23T20:27:48.800Z,5.60
2022-10-23T20:30:15.459Z,5.60
2022-10-23T20:32:43.440Z,5.82
2022-10-23T20:35:10.168Z,5.30
2022-10-23T20:37:36.690Z,5.57
2022-10-23T20:40:03.648Z,5.75
2022-10-23T20:42:30.126Z,6.32
2022-10-23T20:44:56.634Z,4.88
2022-10-23T20:47:23.151Z,6.30
2022-10-23T20:49:49.649Z,6.93
2022-10-23T20:52:16.132Z,6.63
2022-10-23T20:54:42.634Z,5.80
2022-10-23T20:57:09.090Z,6.90
2022-10-23T20:59:35.714Z,5.55
2022-10-23T21:02:02.258Z,5.97
2022-10-23T21:04:29.037Z,5.13
2022-10-23T21:07:12.828Z,5.85
2022-10-23T21:09:40.055Z,5.55
2022-10-23T21:12:06.824Z,5.38
2022-10-23T21:14:33.913Z,5.68
2022-10-23T21:17:00.424Z,4.68
2022-10-23T21:19:27.132Z,5.82
2022-10-23T21:21:54.210Z,5.55
2022-10-23T21:24:20.694Z,5.95
2022-10-23T21:26:47.363Z,5.95
2022-10-23T21:29:19.151Z,5.50
2022-10-23T21:31:55.000Z,5.88
2022-10-23T21:34:22.249Z,5.45
2022-10-23T21:37:11.239Z,5.68
2022-10-23T21:39:35.291Z,6.18
2022-10-23T21:42:01.746Z,5.47
2022-10-23T21:44:28.254Z,6.30
2022-10-23T21:46:55.269Z,5.40
2022-10-23T21:49:21.793Z,6.90
2022-10-23T21:51:48.305Z,6.93
2022-10-23T21:54:15.033Z,6.60
2022-10-23T21:56:53.289Z,6.40
2022-10-23T21:59:22.267Z,6.15
2022-10-23T22:01:49.364Z,7.18
2022-10-23T22:04:17.579Z,5.93
2022-10-23T22:06:44.919Z,6.18
2022-10-23T22:09:13.436Z,5.80
2022-10-23T22:14:07.215Z,5.68
2022-10-23T22:16:33.885Z,5.28
2022-10-23T22:19:00.450Z,6.20
2022-10-23T22:21:28.886Z,6.38
2022-10-23T22:26:25.653Z,6.25
2022-10-23T22:28:53.834Z,4.43
2022-10-23T22:31:25.729Z,6.40
2022-10-23T22:33:52.838Z,4.82
2022-10-23T22:36:19.977Z,5.53
2022-10-23T22:38:46.790Z,5.85
2022-10-23T22:41:13.432Z,5.95
2022-10-23T22:43:40.044Z,5.38
2022-10-23T22:46:11.904Z,6.40
2022-10-23T22:48:38.898Z,5.88
2022-10-23T22:51:08.917Z,6.20
2022-10-23T22:53:35.877Z,6.32
2022-10-23T22:56:09.206Z,6.60
2022-10-23T22:58:35.930Z,5.53
2022-10-23T23:01:07.850Z,6.43
2022-10-23T23:03:38.086Z,7.30
2022-10-23T23:06:05.839Z,6.07
2022-10-23T23:08:33.121Z,8.10
2022-10-23T23:11:00.168Z,4.97
2022-10-23T23:13:26.815Z,6.00
2022-10-23T23:15:53.431Z,6.65
2022-10-23T23:18:20.453Z,5.97
2022-10-23T23:20:47.160Z,6.18
2022-10-23T23:23:14.148Z,6.05
2022-10-23T23:25:46.362Z,5.90
2022-10-23T23:28:14.126Z,6.07
2022-10-23T23:30:42.599Z,6.43
2022-10-23T23:33:10.102Z,4.70
2022-10-23T23:35:43.740Z,6.38
2022-10-23T23:38:10.854Z,5.97
2022-10-23T23:40:37.506Z,5.70
2022-10-23T23:43:04.073Z,6.10
2022-10-23T23:45:30.836Z,6.68
2022-10-23T23:47:57.886Z,5.65
2022-10-23T23:50:24.584Z,6.28
2022-10-23T23:52:51.153Z,5.90
2022-10-23T23:55:17.710Z,6.07
2022-10-23T23:57:44.458Z,6.03
